sensor_id;sensor_type;location;lat;lon;timestamp;P1;durP1;ratioP1;P2;durP2;ratioP2
45926;SDS011;31639;47.614;19.684;2022-08-19T00:03:08;6.00;;;3.17;;
45926;SDS011;31639;47.614;19.684;2022-08-19T00:08:09;6.55;;;3.25;;
45926;SDS011;31639;47.614;19.684;2022-08-19T00:13:09;3.92;;;2.80;;
45926;SDS011;31639;47.614;19.684;2022-08-19T00:18:10;3.35;;;3.05;;
45926;SDS011;31639;47.614;19.684;2022-08-19T00:23:11;5.85;;;3.45;;
45926;SDS011;31639;47.614;19.684;2022-08-19T00:28:11;6.17;;;2.90;;
45926;SDS011;31639;47.614;19.684;2022-08-19T00:33:11;6.70;;;3.33;;
45926;SDS011;31639;47.614;19.684;2022-08-19T00:38:13;4.70;;;3.03;;
45926;SDS011;31639;47.614;19.684;2022-08-19T00:43:14;3.53;;;2.72;;
45926;SDS011;31639;47.614;19.684;2022-08-19T00:48:19;3.20;;;2.90;;
45926;SDS011;31639;47.614;19.684;2022-08-19T00:53:22;5.55;;;3.30;;
45926;SDS011;31639;47.614;19.684;2022-08-19T00:58:24;5.00;;;3.30;;
45926;SDS011;31639;47.614;19.684;2022-08-19T01:03:27;4.65;;;2.75;;
45926;SDS011;31639;47.614;19.684;2022-08-19T01:08:28;3.30;;;2.63;;
45926;SDS011;31639;47.614;19.684;2022-08-19T01:13:29;4.13;;;3.03;;
45926;SDS011;31639;47.614;19.684;2022-08-19T01:18:32;5.72;;;3.58;;
45926;SDS011;31639;47.614;19.684;2022-08-19T01:23:37;4.20;;;2.72;;
45926;SDS011;31639;47.614;19.684;2022-08-19T01:28:44;5.72;;;2.92;;
45926;SDS011;31639;47.614;19.684;2022-08-19T01:33:46;3.63;;;2.50;;
45926;SDS011;31639;47.614;19.684;2022-08-19T01:38:46;3.45;;;2.88;;
45926;SDS011;31639;47.614;19.684;2022-08-19T01:43:48;4.72;;;3.25;;
45926;SDS011;31639;47.614;19.684;2022-08-19T01:48:49;4.32;;;2.95;;
45926;SDS011;31639;47.614;19.684;2022-08-19T01:53:50;3.93;;;2.70;;
45926;SDS011;31639;47.614;19.684;2022-08-19T01:58:53;6.65;;;2.78;;
45926;SDS011;31639;47.614;19.684;2022-08-19T02:03:58;4.30;;;3.25;;
45926;SDS011;31639;47.614;19.684;2022-08-19T02:09:00;5.63;;;3.78;;
45926;SDS011;31639;47.614;19.684;2022-08-19T02:14:02;6.22;;;3.45;;
45926;SDS011;31639;47.614;19.684;2022-08-19T02:19:04;5.97;;;2.83;;
45926;SDS011;31639;47.614;19.684;2022-08-19T02:24:04;4.03;;;2.90;;
45926;SDS011;31639;47.614;19.684;2022-08-19T02:29:05;3.80;;;2.92;;
45926;SDS011;31639;47.614;19.684;2022-08-19T02:34:05;3.35;;;2.63;;
45926;SDS011;31639;47.614;19.684;2022-08-19T02:39:06;3.90;;;2.35;;
45926;SDS011;31639;47.614;19.684;2022-08-19T02:44:06;5.60;;;3.17;;
45926;SDS011;31639;47.614;19.684;2022-08-19T02:49:07;3.75;;;3.08;;
45926;SDS011;31639;47.614;19.684;2022-08-19T02:54:08;5.72;;;3.55;;
45926;SDS011;31639;47.614;19.684;2022-08-19T02:59:10;6.03;;;2.97;;
45926;SDS011;31639;47.614;19.684;2022-08-19T03:04:12;5.70;;;3.22;;
45926;SDS011;31639;47.614;19.684;2022-08-19T03:09:14;4.38;;;2.47;;
45926;SDS011;31639;47.614;19.684;2022-08-19T03:14:15;3.28;;;2.75;;
45926;SDS011;31639;47.614;19.684;2022-08-19T03:19:17;6.20;;;3.13;;
45926;SDS011;31639;47.614;19.684;2022-08-19T03:24:19;3.33;;;2.67;;
45926;SDS011;31639;47.614;19.684;2022-08-19T03:29:20;3.65;;;2.42;;
45926;SDS011;31639;47.614;19.684;2022-08-19T03:34:24;3.50;;;2.53;;
45926;SDS011;31639;47.614;19.684;2022-08-19T03:39:26;5.85;;;2.63;;
45926;SDS011;31639;47.614;19.684;2022-08-19T03:44:27;4.30;;;2.58;;
45926;SDS011;31639;47.614;19.684;2022-08-19T03:49:30;7.32;;;2.97;;
45926;SDS011;31639;47.614;19.684;2022-08-19T03:54:32;4.50;;;3.05;;
45926;SDS011;31639;47.614;19.684;2022-08-19T03:59:34;7.10;;;2.47;;
45926;SDS011;31639;47.614;19.684;2022-08-19T04:04:36;4.40;;;2.47;;
45926;SDS011;31639;47.614;19.684;2022-08-19T04:09:38;5.05;;;2.97;;
45926;SDS011;31639;47.614;19.684;2022-08-19T04:14:38;4.57;;;2.30;;
45926;SDS011;31639;47.614;19.684;2022-08-19T04:19:40;3.00;;;2.38;;
45926;SDS011;31639;47.614;19.684;2022-08-19T04:24:43;4.18;;;2.65;;
45926;SDS011;31639;47.614;19.684;2022-08-19T04:29:43;3.60;;;2.25;;
45926;SDS011;31639;47.614;19.684;2022-08-19T04:34:44;3.83;;;2.42;;
45926;SDS011;31639;47.614;19.684;2022-08-19T04:39:44;4.00;;;2.63;;
45926;SDS011;31639;47.614;19.684;2022-08-19T04:45:07;5.35;;;2.50;;
45926;SDS011;31639;47.614;19.684;2022-08-19T04:50:10;3.25;;;2.40;;
45926;SDS011;31639;47.614;19.684;2022-08-19T04:55:11;3.22;;;2.00;;
45926;SDS011;31639;47.614;19.684;2022-08-19T05:00:13;4.45;;;2.85;;
45926;SDS011;31639;47.614;19.684;2022-08-19T05:05:14;4.55;;;2.80;;
45926;SDS011;31639;47.614;19.684;2022-08-19T05:10:15;3.22;;;2.30;;
45926;SDS011;31639;47.614;19.684;2022-08-19T05:15:15;2.78;;;2.22;;
45926;SDS011;31639;47.614;19.684;2022-08-19T05:20:16;3.92;;;1.80;;
45926;SDS011;31639;47.614;19.684;2022-08-19T05:25:35;4.25;;;2.25;;
45926;SDS011;31639;47.614;19.684;2022-08-19T05:30:42;3.50;;;2.28;;
45926;SDS011;31639;47.614;19.684;2022-08-19T05:35:44;4.15;;;2.72;;
45926;SDS011;31639;47.614;19.684;2022-08-19T05:40:46;4.65;;;2.83;;
45926;SDS011;31639;47.614;19.684;2022-08-19T05:45:48;3.42;;;2.80;;
45926;SDS011;31639;47.614;19.684;2022-08-19T05:50:50;3.53;;;2.63;;
45926;SDS011;31639;47.614;19.684;2022-08-19T05:55:50;5.10;;;2.50;;
45926;SDS011;31639;47.614;19.684;2022-08-19T06:00:51;4.30;;;3.37;;
45926;SDS011;31639;47.614;19.684;2022-08-19T06:05:53;4.18;;;2.45;;
45926;SDS011;31639;47.614;19.684;2022-08-19T06:10:54;3.58;;;2.80;;
45926;SDS011;31639;47.614;19.684;2022-08-19T06:15:55;4.63;;;2.30;;
45926;SDS011;31639;47.614;19.684;2022-08-19T06:20:56;6.27;;;2.73;;
45926;SDS011;31639;47.614;19.684;2022-08-19T06:25:56;4.03;;;2.55;;
45926;SDS011;31639;47.614;19.684;2022-08-19T06:30:56;3.80;;;2.10;;
45926;SDS011;31639;47.614;19.684;2022-08-19T06:35:57;4.00;;;2.73;;
45926;SDS011;31639;47.614;19.684;2022-08-19T06:41:01;2.95;;;2.17;;
45926;SDS011;31639;47.614;19.684;2022-08-19T06:46:08;6.57;;;2.45;;
45926;SDS011;31639;47.614;19.684;2022-08-19T06:51:12;3.72;;;2.22;;
45926;SDS011;31639;47.614;19.684;2022-08-19T06:56:16;3.30;;;2.25;;
45926;SDS011;31639;47.614;19.684;2022-08-19T07:01:19;2.15;;;1.92;;
45926;SDS011;31639;47.614;19.684;2022-08-19T07:06:20;5.25;;;2.55;;
45926;SDS011;31639;47.614;19.684;2022-08-19T07:11:20;4.63;;;2.95;;
45926;SDS011;31639;47.614;19.684;2022-08-19T07:16:21;2.88;;;2.08;;
45926;SDS011;31639;47.614;19.684;2022-08-19T07:21:22;4.75;;;2.40;;
45926;SDS011;31639;47.614;19.684;2022-08-19T07:26:27;3.80;;;2.10;;
45926;SDS011;31639;47.614;19.684;2022-08-19T07:31:30;5.33;;;3.10;;
45926;SDS011;31639;47.614;19.684;2022-08-19T07:36:32;4.30;;;2.30;;
45926;SDS011;31639;47.614;19.684;2022-08-19T07:41:34;5.70;;;2.80;;
45926;SDS011;31639;47.614;19.684;2022-08-19T07:46:37;3.33;;;2.35;;
45926;SDS011;31639;47.614;19.684;2022-08-19T07:51:40;2.47;;;1.73;;
45926;SDS011;31639;47.614;19.684;2022-08-19T07:56:40;3.00;;;2.28;;
45926;SDS011;31639;47.614;19.684;2022-08-19T08:01:40;2.95;;;2.05;;
45926;SDS011;31639;47.614;19.684;2022-08-19T08:06:41;3.17;;;2.23;;
45926;SDS011;31639;47.614;19.684;2022-08-19T08:12:01;3.50;;;2.33;;
45926;SDS011;31639;47.614;19.684;2022-08-19T08:17:06;3.88;;;2.15;;
45926;SDS011;31639;47.614;19.684;2022-08-19T08:22:08;2.78;;;2.10;;
45926;SDS011;31639;47.614;19.684;2022-08-19T08:27:30;3.00;;;1.90;;
45926;SDS011;31639;47.614;19.684;2022-08-19T08:32:31;2.17;;;1.77;;
45926;SDS011;31639;47.614;19.684;2022-08-19T08:37:31;3.13;;;2.37;;
45926;SDS011;31639;47.614;19.684;2022-08-19T08:42:34;3.20;;;2.33;;
45926;SDS011;31639;47.614;19.684;2022-08-19T08:47:37;2.63;;;1.92;;
45926;SDS011;31639;47.614;19.684;2022-08-19T08:52:45;2.60;;;1.83;;
45926;SDS011;31639;47.614;19.684;2022-08-19T09:02:50;2.72;;;2.05;;
45926;SDS011;31639;47.614;19.684;2022-08-19T09:07:57;2.37;;;1.63;;
45926;SDS011;31639;47.614;19.684;2022-08-19T09:18:44;1.80;;;1.63;;
45926;SDS011;31639;47.614;19.684;2022-08-19T09:23:52;2.47;;;1.90;;
45926;SDS011;31639;47.614;19.684;2022-08-19T09:28:54;2.40;;;2.00;;
45926;SDS011;31639;47.614;19.684;2022-08-19T09:33:55;3.05;;;1.70;;
45926;SDS011;31639;47.614;19.684;2022-08-19T09:38:59;2.03;;;1.52;;
45926;SDS011;31639;47.614;19.684;2022-08-19T09:44:02;3.17;;;2.10;;
45926;SDS011;31639;47.614;19.684;2022-08-19T09:49:04;2.85;;;1.90;;
45926;SDS011;31639;47.614;19.684;2022-08-19T09:54:06;5.57;;;2.17;;
45926;SDS011;31639;47.614;19.684;2022-08-19T09:59:06;5.03;;;1.92;;
45926;SDS011;31639;47.614;19.684;2022-08-19T10:04:07;2.60;;;1.80;;
45926;SDS011;31639;47.614;19.684;2022-08-19T10:09:10;3.75;;;1.83;;
45926;SDS011;31639;47.614;19.684;2022-08-19T10:14:11;2.37;;;1.80;;
45926;SDS011;31639;47.614;19.684;2022-08-19T10:19:11;4.17;;;2.40;;
45926;SDS011;31639;47.614;19.684;2022-08-19T10:24:12;2.53;;;2.00;;
45926;SDS011;31639;47.614;19.684;2022-08-19T10:29:12;3.20;;;2.50;;
45926;SDS011;31639;47.614;19.684;2022-08-19T10:34:15;5.50;;;2.20;;
45926;SDS011;31639;47.614;19.684;2022-08-19T10:39:17;2.17;;;1.83;;
45926;SDS011;31639;47.614;19.684;2022-08-19T10:44:18;1.70;;;1.40;;
45926;SDS011;31639;47.614;19.684;2022-08-19T10:49:19;3.30;;;2.08;;
45926;SDS011;31639;47.614;19.684;2022-08-19T10:54:21;3.00;;;2.10;;
45926;SDS011;31639;47.614;19.684;2022-08-19T10:59:23;2.38;;;1.85;;
45926;SDS011;31639;47.614;19.684;2022-08-19T11:04:28;2.50;;;2.13;;
45926;SDS011;31639;47.614;19.684;2022-08-19T11:09:29;2.20;;;2.00;;
45926;SDS011;31639;47.614;19.684;2022-08-19T11:14:29;4.93;;;2.33;;
45926;SDS011;31639;47.614;19.684;2022-08-19T11:19:33;3.17;;;1.77;;
45926;SDS011;31639;47.614;19.684;2022-08-19T11:24:35;3.28;;;2.20;;
45926;SDS011;31639;47.614;19.684;2022-08-19T11:29:39;2.47;;;1.90;;
45926;SDS011;31639;47.614;19.684;2022-08-19T11:34:40;2.65;;;2.00;;
45926;SDS011;31639;47.614;19.684;2022-08-19T11:39:40;3.10;;;2.10;;
45926;SDS011;31639;47.614;19.684;2022-08-19T11:44:41;2.22;;;1.77;;
45926;SDS011;31639;47.614;19.684;2022-08-19T11:49:41;2.43;;;2.10;;
45926;SDS011;31639;47.614;19.684;2022-08-19T11:54:42;3.30;;;1.85;;
45926;SDS011;31639;47.614;19.684;2022-08-19T11:59:47;1.97;;;1.73;;
45926;SDS011;31639;47.614;19.684;2022-08-19T12:04:48;2.92;;;1.98;;
45926;SDS011;31639;47.614;19.684;2022-08-19T12:09:49;2.30;;;1.90;;
45926;SDS011;31639;47.614;19.684;2022-08-19T12:14:49;3.73;;;1.90;;
45926;SDS011;31639;47.614;19.684;2022-08-19T12:19:56;2.40;;;1.90;;
45926;SDS011;31639;47.614;19.684;2022-08-19T12:24:56;3.90;;;2.00;;
45926;SDS011;31639;47.614;19.684;2022-08-19T12:29:58;2.50;;;1.85;;
45926;SDS011;31639;47.614;19.684;2022-08-19T12:35:01;3.38;;;1.80;;
45926;SDS011;31639;47.614;19.684;2022-08-19T12:40:02;2.90;;;2.03;;
45926;SDS011;31639;47.614;19.684;2022-08-19T12:45:04;3.67;;;2.58;;
45926;SDS011;31639;47.614;19.684;2022-08-19T12:50:05;3.03;;;1.90;;
45926;SDS011;31639;47.614;19.684;2022-08-19T12:55:08;2.58;;;1.63;;
45926;SDS011;31639;47.614;19.684;2022-08-19T13:00:13;1.73;;;1.60;;
45926;SDS011;31639;47.614;19.684;2022-08-19T13:05:17;2.17;;;1.98;;
45926;SDS011;31639;47.614;19.684;2022-08-19T13:10:24;2.13;;;1.70;;
45926;SDS011;31639;47.614;19.684;2022-08-19T13:15:27;3.20;;;1.90;;
45926;SDS011;31639;47.614;19.684;2022-08-19T13:20:29;3.03;;;1.80;;
45926;SDS011;31639;47.614;19.684;2022-08-19T13:25:29;3.42;;;2.00;;
45926;SDS011;31639;47.614;19.684;2022-08-19T13:30:30;2.47;;;1.83;;
45926;SDS011;31639;47.614;19.684;2022-08-19T13:35:50;2.47;;;2.00;;
45926;SDS011;31639;47.614;19.684;2022-08-19T13:40:55;3.58;;;1.70;;
45926;SDS011;31639;47.614;19.684;2022-08-19T13:45:56;2.60;;;1.90;;
45926;SDS011;31639;47.614;19.684;2022-08-19T13:50:56;2.20;;;1.50;;
45926;SDS011;31639;47.614;19.684;2022-08-19T13:55:57;2.53;;;1.77;;
45926;SDS011;31639;47.614;19.684;2022-08-19T14:00:57;4.95;;;1.90;;
45926;SDS011;31639;47.614;19.684;2022-08-19T14:05:59;2.33;;;1.75;;
45926;SDS011;31639;47.614;19.684;2022-08-19T14:10:59;2.10;;;1.50;;
45926;SDS011;31639;47.614;19.684;2022-08-19T14:16:00;1.70;;;1.48;;
45926;SDS011;31639;47.614;19.684;2022-08-19T14:21:00;2.27;;;1.70;;
45926;SDS011;31639;47.614;19.684;2022-08-19T14:26:05;2.67;;;2.00;;
45926;SDS011;31639;47.614;19.684;2022-08-19T14:31:12;3.30;;;1.77;;
45926;SDS011;31639;47.614;19.684;2022-08-19T14:36:17;3.10;;;1.85;;
45926;SDS011;31639;47.614;19.684;2022-08-19T14:41:20;3.22;;;2.13;;
45926;SDS011;31639;47.614;19.684;2022-08-19T14:46:23;2.92;;;2.55;;
45926;SDS011;31639;47.614;19.684;2022-08-19T14:51:25;2.75;;;1.67;;
45926;SDS011;31639;47.614;19.684;2022-08-19T14:56:27;5.40;;;2.35;;
45926;SDS011;31639;47.614;19.684;2022-08-19T15:01:29;4.22;;;1.70;;
45926;SDS011;31639;47.614;19.684;2022-08-19T15:11:30;2.42;;;1.80;;
45926;SDS011;31639;47.614;19.684;2022-08-19T15:16:32;3.22;;;2.33;;
45926;SDS011;31639;47.614;19.684;2022-08-19T15:21:32;2.30;;;1.80;;
45926;SDS011;31639;47.614;19.684;2022-08-19T15:26:33;2.30;;;1.70;;
45926;SDS011;31639;47.614;19.684;2022-08-19T15:31:33;3.13;;;1.87;;
45926;SDS011;31639;47.614;19.684;2022-08-19T15:36:35;3.00;;;2.33;;
45926;SDS011;31639;47.614;19.684;2022-08-19T15:41:36;3.70;;;1.95;;
45926;SDS011;31639;47.614;19.684;2022-08-19T15:46:38;3.85;;;2.20;;
45926;SDS011;31639;47.614;19.684;2022-08-19T15:51:41;3.07;;;1.97;;
45926;SDS011;31639;47.614;19.684;2022-08-19T15:56:42;3.15;;;1.98;;
45926;SDS011;31639;47.614;19.684;2022-08-19T16:02:02;4.47;;;2.33;;
45926;SDS011;31639;47.614;19.684;2022-08-19T16:07:21;5.00;;;1.85;;
45926;SDS011;31639;47.614;19.684;2022-08-19T16:12:21;3.63;;;1.60;;
45926;SDS011;31639;47.614;19.684;2022-08-19T16:17:26;7.20;;;2.08;;
45926;SDS011;31639;47.614;19.684;2022-08-19T16:22:27;3.67;;;2.25;;
45926;SDS011;31639;47.614;19.684;2022-08-19T16:27:30;2.65;;;1.17;;
45926;SDS011;31639;47.614;19.684;2022-08-19T16:32:30;6.87;;;1.60;;
45926;SDS011;31639;47.614;19.684;2022-08-19T16:37:31;3.65;;;1.45;;
45926;SDS011;31639;47.614;19.684;2022-08-19T16:42:31;4.07;;;1.83;;
45926;SDS011;31639;47.614;19.684;2022-08-19T16:47:33;4.15;;;1.38;;
45926;SDS011;31639;47.614;19.684;2022-08-19T16:52:34;4.72;;;2.00;;
45926;SDS011;31639;47.614;19.684;2022-08-19T16:57:35;5.95;;;1.55;;
45926;SDS011;31639;47.614;19.684;2022-08-19T17:02:36;9.13;;;2.15;;
45926;SDS011;31639;47.614;19.684;2022-08-19T17:07:38;10.93;;;2.45;;
45926;SDS011;31639;47.614;19.684;2022-08-19T17:12:38;3.50;;;1.93;;
45926;SDS011;31639;47.614;19.684;2022-08-19T17:17:39;5.10;;;1.98;;
45926;SDS011;31639;47.614;19.684;2022-08-19T17:22:40;6.75;;;1.70;;
45926;SDS011;31639;47.614;19.684;2022-08-19T17:27:40;6.37;;;1.70;;
45926;SDS011;31639;47.614;19.684;2022-08-19T17:32:41;5.03;;;1.80;;
45926;SDS011;31639;47.614;19.684;2022-08-19T17:37:41;2.47;;;1.33;;
45926;SDS011;31639;47.614;19.684;2022-08-19T17:42:42;3.40;;;2.20;;
45926;SDS011;31639;47.614;19.684;2022-08-19T17:47:43;4.03;;;2.05;;
45926;SDS011;31639;47.614;19.684;2022-08-19T17:52:44;3.90;;;1.10;;
45926;SDS011;31639;47.614;19.684;2022-08-19T17:57:44;4.18;;;1.30;;
45926;SDS011;31639;47.614;19.684;2022-08-19T18:02:56;3.58;;;1.45;;
45926;SDS011;31639;47.614;19.684;2022-08-19T18:08:00;5.85;;;2.05;;
45926;SDS011;31639;47.614;19.684;2022-08-19T18:13:00;5.05;;;1.98;;
45926;SDS011;31639;47.614;19.684;2022-08-19T18:18:01;3.30;;;1.87;;
45926;SDS011;31639;47.614;19.684;2022-08-19T18:23:01;2.10;;;1.20;;
45926;SDS011;31639;47.614;19.684;2022-08-19T18:28:02;2.92;;;1.00;;
45926;SDS011;31639;47.614;19.684;2022-08-19T18:33:04;4.72;;;1.52;;
45926;SDS011;31639;47.614;19.684;2022-08-19T18:38:16;3.15;;;1.50;;
45926;SDS011;31639;47.614;19.684;2022-08-19T18:43:36;5.80;;;1.70;;
45926;SDS011;31639;47.614;19.684;2022-08-19T18:48:54;5.25;;;1.80;;
45926;SDS011;31639;47.614;19.684;2022-08-19T18:54:04;4.15;;;1.52;;
45926;SDS011;31639;47.614;19.684;2022-08-19T18:59:04;2.10;;;1.25;;
45926;SDS011;31639;47.614;19.684;2022-08-19T19:04:06;2.20;;;1.20;;
45926;SDS011;31639;47.614;19.684;2022-08-19T19:09:12;4.68;;;1.35;;
45926;SDS011;31639;47.614;19.684;2022-08-19T19:14:18;6.53;;;2.22;;
45926;SDS011;31639;47.614;19.684;2022-08-19T19:19:22;2.50;;;1.60;;
45926;SDS011;31639;47.614;19.684;2022-08-19T19:24:24;5.90;;;2.00;;
45926;SDS011;31639;47.614;19.684;2022-08-19T19:29:29;5.82;;;1.88;;
45926;SDS011;31639;47.614;19.684;2022-08-19T19:34:32;1.90;;;1.33;;
45926;SDS011;31639;47.614;19.684;2022-08-19T19:39:33;4.50;;;1.88;;
45926;SDS011;31639;47.614;19.684;2022-08-19T19:44:36;10.80;;;2.13;;
45926;SDS011;31639;47.614;19.684;2022-08-19T19:49:38;5.00;;;1.80;;
45926;SDS011;31639;47.614;19.684;2022-08-19T19:54:40;5.95;;;2.13;;
45926;SDS011;31639;47.614;19.684;2022-08-19T19:59:40;4.55;;;1.30;;
45926;SDS011;31639;47.614;19.684;2022-08-19T20:04:42;3.08;;;1.50;;
45926;SDS011;31639;47.614;19.684;2022-08-19T20:09:43;5.80;;;1.50;;
45926;SDS011;31639;47.614;19.684;2022-08-19T20:14:43;10.30;;;2.93;;
45926;SDS011;31639;47.614;19.684;2022-08-19T20:19:43;3.37;;;1.93;;
45926;SDS011;31639;47.614;19.684;2022-08-19T20:24:44;2.63;;;1.50;;
45926;SDS011;31639;47.614;19.684;2022-08-19T20:29:44;7.77;;;2.33;;
45926;SDS011;31639;47.614;19.684;2022-08-19T20:34:45;3.28;;;1.50;;
45926;SDS011;31639;47.614;19.684;2022-08-19T20:39:48;3.53;;;1.33;;
45926;SDS011;31639;47.614;19.684;2022-08-19T20:44:48;7.00;;;2.53;;
45926;SDS011;31639;47.614;19.684;2022-08-19T20:49:49;5.45;;;2.55;;
45926;SDS011;31639;47.614;19.684;2022-08-19T20:54:50;4.10;;;2.05;;
45926;SDS011;31639;47.614;19.684;2022-08-19T20:59:50;4.80;;;1.63;;
45926;SDS011;31639;47.614;19.684;2022-08-19T21:04:51;5.03;;;2.43;;
45926;SDS011;31639;47.614;19.684;2022-08-19T21:09:51;3.20;;;2.10;;
45926;SDS011;31639;47.614;19.684;2022-08-19T21:14:52;8.52;;;2.95;;
45926;SDS011;31639;47.614;19.684;2022-08-19T21:19:52;6.53;;;2.63;;
45926;SDS011;31639;47.614;19.684;2022-08-19T21:24:53;6.70;;;2.60;;
45926;SDS011;31639;47.614;19.684;2022-08-19T21:29:53;6.37;;;2.43;;
45926;SDS011;31639;47.614;19.684;2022-08-19T21:34:54;5.05;;;2.13;;
45926;SDS011;31639;47.614;19.684;2022-08-19T21:39:54;7.68;;;2.47;;
45926;SDS011;31639;47.614;19.684;2022-08-19T21:44:55;4.45;;;1.75;;
45926;SDS011;31639;47.614;19.684;2022-08-19T21:49:55;4.25;;;1.67;;
45926;SDS011;31639;47.614;19.684;2022-08-19T21:54:56;3.57;;;1.60;;
45926;SDS011;31639;47.614;19.684;2022-08-19T21:59:57;6.18;;;2.25;;
45926;SDS011;31639;47.614;19.684;2022-08-19T22:04:57;4.57;;;2.10;;
45926;SDS011;31639;47.614;19.684;2022-08-19T22:09:57;3.10;;;2.27;;
45926;SDS011;31639;47.614;19.684;2022-08-19T22:14:58;4.60;;;1.90;;
45926;SDS011;31639;47.614;19.684;2022-08-19T22:19:59;4.45;;;2.03;;
45926;SDS011;31639;47.614;19.684;2022-08-19T22:25:01;4.93;;;2.08;;
45926;SDS011;31639;47.614;19.684;2022-08-19T22:30:06;4.03;;;2.20;;
45926;SDS011;31639;47.614;19.684;2022-08-19T22:35:09;4.97;;;2.28;;
45926;SDS011;31639;47.614;19.684;2022-08-19T22:40:10;4.82;;;3.03;;
45926;SDS011;31639;47.614;19.684;2022-08-19T22:45:12;3.85;;;2.58;;
45926;SDS011;31639;47.614;19.684;2022-08-19T22:50:15;6.90;;;2.20;;
45926;SDS011;31639;47.614;19.684;2022-08-19T22:55:16;4.03;;;2.28;;
45926;SDS011;31639;47.614;19.684;2022-08-19T23:00:16;3.93;;;2.40;;
45926;SDS011;31639;47.614;19.684;2022-08-19T23:05:17;6.60;;;3.30;;
45926;SDS011;31639;47.614;19.684;2022-08-19T23:10:18;7.75;;;3.22;;
45926;SDS011;31639;47.614;19.684;2022-08-19T23:15:21;6.10;;;2.47;;
45926;SDS011;31639;47.614;19.684;2022-08-19T23:20:25;4.90;;;2.10;;
45926;SDS011;31639;47.614;19.684;2022-08-19T23:25:32;2.65;;;1.92;;
45926;SDS011;31639;47.614;19.684;2022-08-19T23:30:35;3.83;;;2.40;;
45926;SDS011;31639;47.614;19.684;2022-08-19T23:35:37;3.97;;;2.25;;
45926;SDS011;31639;47.614;19.684;2022-08-19T23:40:39;3.45;;;2.47;;
45926;SDS011;31639;47.614;19.684;2022-08-19T23:45:40;5.13;;;1.93;;
45926;SDS011;31639;47.614;19.684;2022-08-19T23:50:42;3.53;;;2.30;;
45926;SDS011;31639;47.614;19.684;2022-08-19T23:55:44;5.45;;;2.50;;
